»·PEaware :: N401TS KMFR-KASE

N401TS :: KMFR-KASE

FLIGHT INFORMATION

Flight Status: Arrived
Operator: Privately registered:
United States
More flights under this callsign
Pilot: Ian S. (13252)
Aircraft: Unknown
(EPIC)
More flights by this aircraft type
Origin: KMFR Rogue Valley Intl-Medford
United States
Destination: KASE Aspen-Pitkin Co/Sardy
United States
More flights between these airports :: More routes between these airports
Route: + / BYI210014 DBL
File this flight plan on PilotEdge
Remarks:
Altitude:
(Current/Filed)
27,000ft
Speed:
(Current/Filed)
270kts
Departed: 17-Nov-17 09:39 PM
Arrived: 17-Nov-17 11:57 PM
Distance/Time
Traveled:
750nm/2:18
Distance/Time
To Go:
Arrived

Flight Plot

Page will automatically refresh every two minutes.

Flight plan parsing failed; only flown route is shown


Map Options




Map Legend


Flown Route
Filed Route
Departure Airport
Arrival Airport
Navaid (VOR, NDB)
Fix

Horizontal Profiles

Position Reports

Time Latitude Longitude Heading Altitude Ground
Speed
17-Nov-17 21:33 42.374698 -122.878562 291 1307ft 0kts
17-Nov-17 21:34 42.374698 -122.878562 291 1307ft 0kts
17-Nov-17 21:35 42.374698 -122.878562 291 1307ft 0kts
17-Nov-17 21:36 42.374698 -122.878562 291 1307ft 0kts
17-Nov-17 21:37 42.374698 -122.878562 291 1307ft 0kts
17-Nov-17 21:38 42.374698 -122.878562 291 1307ft 0kts
17-Nov-17 21:39 42.374698 -122.878562 291 1307ft 0kts
17-Nov-17 21:40 42.374699 -122.878563 291 1307ft 0kts
17-Nov-17 21:41 42.373176 -122.877423 108 1310ft 21kts
17-Nov-17 21:42 42.368736 -122.871533 159 1319ft 31kts
17-Nov-17 21:43 42.363647 -122.868720 121 1325ft 0kts
17-Nov-17 21:44 42.391674 -122.881911 338 1871ft 217kts
17-Nov-17 21:45 42.437717 -122.907547 337 5008ft 214kts
17-Nov-17 21:46 42.488125 -122.943612 318 8979ft 211kts
17-Nov-17 21:47 42.546059 -122.942746 43 10984ft 284kts
17-Nov-17 21:48 42.524141 -122.847992 166 11635ft 309kts
17-Nov-17 21:49 42.445970 -122.813091 163 13724ft 291kts
17-Nov-17 21:50 42.394588 -122.745157 85 15812ft 286kts
17-Nov-17 21:51 42.373950 -122.642411 112 17894ft 285kts
17-Nov-17 21:52 42.340294 -122.546902 116 19994ft 280kts
17-Nov-17 21:53 42.305382 -122.454784 117 22094ft 274kts
17-Nov-17 21:54 42.271041 -122.365220 117 24197ft 267kts
17-Nov-17 21:55 42.239392 -122.273935 102 25491ft 285kts
17-Nov-17 21:56 42.221964 -122.167420 100 26494ft 297kts
17-Nov-17 21:57 42.204671 -122.056171 100 26938ft 318kts
17-Nov-17 21:58 42.186158 -121.937257 100 26937ft 333kts
17-Nov-17 21:59 42.166872 -121.814234 100 26937ft 338kts
17-Nov-17 22:00 42.166518 -121.689346 67 26942ft 345kts
17-Nov-17 22:01 42.199053 -121.566786 63 26939ft 353kts
17-Nov-17 22:02 42.233789 -121.443276 63 26940ft 357kts
17-Nov-17 22:03 42.268908 -121.318380 64 26933ft 359kts
17-Nov-17 22:04 42.303933 -121.193200 64 26933ft 359kts
17-Nov-17 22:05 42.338772 -121.068098 64 26934ft 359kts
17-Nov-17 22:06 42.373528 -120.942669 64 26935ft 359kts
17-Nov-17 22:07 42.408289 -120.816581 64 26936ft 359kts
17-Nov-17 22:08 42.442753 -120.690929 64 26959ft 358kts
17-Nov-17 22:09 42.477142 -120.564926 64 26964ft 359kts
17-Nov-17 22:10 42.494113 -120.431746 83 26965ft 367kts
17-Nov-17 22:11 42.497727 -120.295268 85 26959ft 367kts
17-Nov-17 22:12 42.500715 -120.157913 85 26959ft 366kts
17-Nov-17 22:13 42.503508 -120.020966 85 26961ft 366kts
17-Nov-17 22:14 42.506142 -119.883979 85 26962ft 366kts
17-Nov-17 22:15 42.508604 -119.746845 85 26963ft 366kts
17-Nov-17 22:16 42.510905 -119.609905 85 26964ft 366kts
17-Nov-17 22:17 42.513053 -119.472244 85 26965ft 367kts
17-Nov-17 22:18 42.515026 -119.335890 86 26936ft 367kts
17-Nov-17 22:19 42.516840 -119.198156 86 26932ft 366kts
17-Nov-17 22:20 42.518487 -119.061155 86 26933ft 366kts
17-Nov-17 22:21 42.519966 -118.924755 86 26934ft 366kts
17-Nov-17 22:22 42.521291 -118.787399 86 26935ft 366kts
17-Nov-17 22:23 42.522449 -118.650503 86 26936ft 366kts
17-Nov-17 22:24 42.523445 -118.513379 86 26937ft 366kts
17-Nov-17 22:25 42.524277 -118.376208 86 26938ft 366kts
17-Nov-17 22:26 42.524935 -118.242216 87 26932ft 366kts
17-Nov-17 22:27 42.525163 -118.104793 83 26933ft 370kts
17-Nov-17 22:28 42.525811 -117.965432 85 26934ft 373kts
17-Nov-17 22:29 42.525974 -117.825800 85 26935ft 374kts
17-Nov-17 22:30 42.525978 -117.685974 84 26936ft 374kts
17-Nov-17 22:31 42.525831 -117.549903 84 26938ft 375kts
17-Nov-17 22:32 42.525506 -117.409538 84 26939ft 375kts
17-Nov-17 22:33 42.525009 -117.269578 85 26931ft 375kts
17-Nov-17 22:34 42.524376 -117.129229 85 26932ft 375kts
17-Nov-17 22:35 42.523512 -116.988841 85 26934ft 375kts
17-Nov-17 22:36 42.522489 -116.848584 85 26935ft 375kts
17-Nov-17 22:37 42.521310 -116.708343 85 26963ft 375kts
17-Nov-17 22:38 42.519962 -116.568063 85 26965ft 375kts
17-Nov-17 22:39 42.518438 -116.427613 85 26966ft 376kts
17-Nov-17 22:40 42.516633 -116.287911 85 26958ft 377kts
17-Nov-17 22:41 42.514896 -116.147224 86 26959ft 376kts
17-Nov-17 22:42 42.512838 -116.006545 85 26961ft 376kts
17-Nov-17 22:43 42.510616 -115.865410 85 26962ft 377kts
17-Nov-17 22:44 42.508228 -115.724841 85 26963ft 377kts
17-Nov-17 22:45 42.505660 -115.583649 85 26965ft 377kts
17-Nov-17 22:46 42.502913 -115.442175 85 26966ft 378kts
17-Nov-17 22:47 42.500095 -115.303456 86 26932ft 378kts
17-Nov-17 22:48 42.496959 -115.162053 86 26932ft 377kts
17-Nov-17 22:49 42.493697 -115.021216 86 26934ft 377kts
17-Nov-17 22:50 42.490214 -114.879855 85 26935ft 376kts
17-Nov-17 22:51 42.486675 -114.739487 85 26936ft 376kts
17-Nov-17 22:52 42.482913 -114.598879 85 26938ft 376kts
17-Nov-17 22:53 42.474942 -114.458547 93 26940ft 381kts
17-Nov-17 22:54 42.456380 -114.318827 95 26933ft 382kts
17-Nov-17 22:55 42.437044 -114.179467 95 26926ft 382kts
17-Nov-17 22:56 42.412241 -114.041170 118 26909ft 389kts
17-Nov-17 22:57 42.361429 -113.913239 114 26909ft 388kts
17-Nov-17 22:58 42.313529 -113.784201 114 26911ft 389kts
17-Nov-17 22:59 42.265586 -113.655045 114 26912ft 389kts
17-Nov-17 23:00 42.217419 -113.525846 114 26914ft 389kts
17-Nov-17 23:01 42.168929 -113.396368 114 26916ft 390kts
17-Nov-17 23:02 42.120715 -113.268194 115 26908ft 389kts
17-Nov-17 23:03 42.072270 -113.140012 115 26910ft 389kts
17-Nov-17 23:04 42.023385 -113.011227 115 26911ft 389kts
17-Nov-17 23:05 41.974624 -112.882824 117 26959ft 390kts
17-Nov-17 23:06 41.925147 -112.754103 117 26929ft 395kts
17-Nov-17 23:07 41.875561 -112.625225 117 26908ft 395kts
17-Nov-17 23:08 41.825577 -112.495908 117 26910ft 395kts
17-Nov-17 23:09 41.775396 -112.366591 117 26944ft 395kts
17-Nov-17 23:10 41.726646 -112.241552 118 26929ft 394kts
17-Nov-17 23:11 41.676100 -112.112473 118 26931ft 394kts
17-Nov-17 23:12 41.625375 -111.983465 118 26933ft 395kts
17-Nov-17 23:13 41.574461 -111.854622 118 26935ft 395kts
17-Nov-17 23:14 41.523777 -111.726849 118 26937ft 396kts
17-Nov-17 23:15 41.472550 -111.598308 118 26939ft 396kts
17-Nov-17 23:16 41.421128 -111.469797 118 26941ft 397kts
17-Nov-17 23:17 41.370292 -111.343361 119 26871ft 399kts
17-Nov-17 23:18 41.318280 -111.214522 120 26851ft 397kts
17-Nov-17 23:19 41.266446 -111.086730 120 26853ft 396kts
17-Nov-17 23:20 41.214288 -110.958633 120 26855ft 396kts
17-Nov-17 23:21 41.162146 -110.831159 120 26857ft 396kts
17-Nov-17 23:22 41.109783 -110.703662 120 26859ft 397kts
17-Nov-17 23:23 41.057301 -110.576408 120 26870ft 397kts
17-Nov-17 23:24 41.004456 -110.448876 120 26889ft 397kts
17-Nov-17 23:25 40.952042 -110.322825 121 26880ft 398kts
17-Nov-17 23:26 40.899775 -110.197783 122 26879ft 397kts
17-Nov-17 23:27 40.847542 -110.073248 122 26877ft 396kts
17-Nov-17 23:28 40.794499 -109.947345 122 26857ft 396kts
17-Nov-17 23:29 40.741232 -109.821429 122 26854ft 396kts
17-Nov-17 23:30 40.687712 -109.695429 122 26856ft 396kts
17-Nov-17 23:31 40.634191 -109.569983 122 26858ft 397kts
17-Nov-17 23:32 40.580393 -109.444322 123 26862ft 397kts
17-Nov-17 23:33 40.527538 -109.321252 127 26849ft 387kts
17-Nov-17 23:34 40.476070 -109.202215 127 27232ft 375kts
17-Nov-17 23:35 40.424639 -109.083843 128 27236ft 378kts
17-Nov-17 23:36 40.372831 -108.964648 127 27237ft 380kts
17-Nov-17 23:37 40.320785 -108.845487 127 27239ft 381kts
17-Nov-17 23:38 40.268313 -108.725845 127 27240ft 381kts
17-Nov-17 23:39 40.215737 -108.606427 127 27242ft 382kts
17-Nov-17 23:40 40.162844 -108.486765 127 27240ft 382kts
17-Nov-17 23:41 40.108034 -108.363439 126 25825ft 407kts
17-Nov-17 23:42 40.053423 -108.240815 126 24371ft 408kts
17-Nov-17 23:43 39.997956 -108.116790 126 22884ft 403kts
17-Nov-17 23:44 39.942380 -107.993228 125 21374ft 384kts
17-Nov-17 23:45 39.894650 -107.887096 125 19957ft 353kts
17-Nov-17 23:46 39.846246 -107.780125 124 18508ft 357kts
17-Nov-17 23:47 39.796404 -107.670841 120 17339ft 342kts
17-Nov-17 23:48 39.749074 -107.566310 118 17186ft 342kts
17-Nov-17 23:49 39.702797 -107.464786 118 17130ft 321kts
17-Nov-17 23:50 39.658230 -107.367720 119 17155ft 312kts
17-Nov-17 23:51 39.622816 -107.290595 120 17155ft 310kts
17-Nov-17 23:52 39.571454 -107.179216 120 16818ft 321kts
17-Nov-17 23:53 39.525073 -107.078989 120 15826ft 329kts
17-Nov-17 23:54 39.486564 -106.996025 120 14992ft 303kts
17-Nov-17 23:55 39.437090 -106.907405 159 14147ft 219kts
17-Nov-17 23:56 39.397934 -106.894951 171 13162ft 134kts
17-Nov-17 23:57 39.357595 -106.887801 172 12715ft 154kts
17-Nov-17 23:58 39.319780 -106.882816 174 11602ft 120kts
17-Nov-17 23:59 39.290074 -106.879563 176 10011ft 108kts
18-Nov-17 00:00 39.255094 -106.877760 178 8169ft 106kts
18-Nov-17 00:01 39.231002 -106.872600 157 7682ft 90kts
18-Nov-17 00:02 39.223069 -106.867298 152 7740ft 10kts
18-Nov-17 00:03 39.222412 -106.866174 228 7745ft 0kts
18-Nov-17 00:04 39.222412 -106.866174 228 7745ft 0kts
18-Nov-17 00:05 39.222412 -106.866174 228 7745ft 0kts

Navigation Log

Ident Type
Flight plan parsing failed, navigation log unavailable